KR-0404 weather

Korea Maritime & Ocean University Heliport
Busan (Yeoung-do), Busan Gwang'yeogsi, South Korea

Public forecast

Using degrees Celsius for public forecast. Weather courtesy of forecast.io.

Closest aviation weather report (METAR) to Korea Maritime & Ocean University Heliport

Closest report is Gimhae International Airport, 9.7 nm (17.9 km) NW. Retrieved 2020/08/04 22:00 UTC (27 minutes ago):

RKPK 042200Z 17007KT 0600 R36/0650 FG BKN002 BKN010 26/25 Q1014

Closest aviation forecast (TAF) to Korea Maritime & Ocean University Heliport

Closest forecast is Gimhae International Airport, 9.7 nm (17.9 km) NW. Retrieved 2020/08/04 18:00 UTC (4 hours ago):

TAF RKPK 041700Z 0418/0524 18006KT 0400 FG OVC002 TN25/0421Z TX31/0506Z FM050000 18006KT 1600 BR BKN010 BKN200 BECMG 0501/0502 18010KT 4800 SCT020 BKN200